Time;durP1;ratioP1;P1;durP2;ratioP2;P2;SDS_P1;SDS_P2;PMS_P1;PMS_P2;Temp;Humidity;BMP_temperature;BMP_pressure;BME280_temperature;BME280_humidity;BME280_pressure;Samples;Min_cycle;Max_cycle;Signal;HPM_P1;HPM_P2
2023/04/09 00:02:14;;;;;;;47.17;31.63;;;7.90;99.90;;;;;;5034209;28;20063;-84
2023/04/09 00:04:40;;;;;;;48.33;33.40;;;8.00;99.90;;;;;;5017907;28;20038;-84
2023/04/09 00:07:06;;;;;;;49.05;33.40;;;8.00;99.90;;;;;;5017950;28;20136;-84
2023/04/09 00:09:32;;;;;;;49.40;32.47;;;8.00;99.90;;;;;;5034714;28;20408;-84
2023/04/09 00:11:58;;;;;;;47.40;32.55;;;8.00;99.90;;;;;;5018126;28;20140;-85
2023/04/09 00:14:24;;;;;;;48.10;33.80;;;8.00;99.90;;;;;;5017942;28;20049;-85
2023/04/09 00:16:49;;;;;;;52.53;34.05;;;8.00;99.90;;;;;;5017982;28;20394;-85
2023/04/09 00:19:18;;;;;;;48.45;33.33;;;7.90;99.90;;;;;;5034332;28;20110;-84
2023/04/09 00:21:44;;;;;;;51.47;33.75;;;7.90;99.90;;;;;;5018329;28;20477;-85
2023/04/09 00:24:10;;;;;;;52.40;35.78;;;7.90;99.90;;;;;;5034329;28;20052;-85
2023/04/09 00:26:35;;;;;;;50.30;34.83;;;7.90;99.90;;;;;;5033878;28;20054;-85
2023/04/09 00:29:01;;;;;;;52.80;36.38;;;7.80;99.90;;;;;;5017976;28;20075;-85
2023/04/09 00:31:27;;;;;;;50.40;35.47;;;7.80;99.90;;;;;;5017646;28;20053;-85
2023/04/09 00:33:53;;;;;;;51.45;35.00;;;7.80;99.90;;;;;;5017353;28;20056;-86
2023/04/09 00:36:18;;;;;;;50.15;35.53;;;7.80;99.90;;;;;;5017548;28;20448;-86
2023/04/09 00:38:46;;;;;;;47.13;34.25;;;7.80;99.90;;;;;;5034066;28;20476;-86
2023/04/09 00:41:12;;;;;;;54.00;35.92;;;7.80;99.90;;;;;;5001691;28;20057;-86
2023/04/09 00:43:38;;;;;;;52.45;36.85;;;7.80;99.90;;;;;;5033794;28;20119;-86
2023/04/09 00:46:03;;;;;;;53.88;36.38;;;7.80;99.90;;;;;;5001232;28;20477;-86
2023/04/09 00:48:29;;;;;;;52.60;36.08;;;7.80;99.90;;;;;;5017770;28;20081;-86
2023/04/09 00:50:55;;;;;;;50.70;35.30;;;7.80;99.90;;;;;;5033815;28;20050;-85
2023/04/09 00:53:21;;;;;;;51.65;35.78;;;7.80;99.90;;;;;;5033733;28;20057;-85
2023/04/09 00:55:47;;;;;;;54.47;35.63;;;7.80;99.90;;;;;;5017538;28;20254;-85
2023/04/09 00:58:13;;;;;;;47.22;33.13;;;7.80;99.90;;;;;;5033856;28;20045;-86
2023/04/09 01:00:39;;;;;;;42.83;31.25;;;7.80;99.90;;;;;;5016359;28;20057;-86
2023/04/09 01:03:09;;;;;;;49.58;35.13;;;7.70;99.90;;;;;;5033206;28;20107;-85
2023/04/09 01:06:07;;;;;;;44.33;31.17;;;7.70;99.90;;;;;;5017214;28;20041;-86
2023/04/09 01:09:02;;;;;;;44.70;32.03;;;7.70;99.90;;;;;;5033682;28;20489;-87
2023/04/09 01:11:49;;;;;;;47.00;33.28;;;7.60;99.90;;;;;;5033975;28;20061;-86
2023/04/09 01:14:31;;;;;;;57.58;38.42;;;7.50;99.90;;;;;;5017087;28;20127;-86
2023/04/09 01:17:09;;;;;;;46.60;32.80;;;7.40;99.90;;;;;;5032889;28;20041;-86
2023/04/09 01:19:59;;;;;;;48.90;33.75;;;7.40;99.90;;;;;;5033922;28;20049;-87
2023/04/09 01:22:43;;;;;;;59.67;38.83;;;7.30;99.90;;;;;;5033400;28;20397;-87
2023/04/09 01:25:16;;;;;;;62.38;39.38;;;7.30;99.90;;;;;;5017384;28;20087;-87
2023/04/09 01:28:08;;;;;;;46.00;31.98;;;7.10;99.90;;;;;;5017330;28;20049;-86
2023/04/09 01:30:34;;;;;;;62.92;40.22;;;7.10;99.90;;;;;;5026212;28;20528;-88
2023/04/09 01:33:01;;;;;;;52.90;35.33;;;7.10;99.90;;;;;;5033664;28;20089;-87
2023/04/09 01:35:28;;;;;;;51.75;36.75;;;7.00;99.90;;;;;;5001237;28;20436;-87
2023/04/09 01:37:55;;;;;;;45.90;32.10;;;7.10;99.90;;;;;;5034278;28;20120;-88
2023/04/09 01:40:21;;;;;;;50.30;35.03;;;7.10;99.90;;;;;;5017205;28;20052;-87
2023/04/09 01:42:48;;;;;;;48.22;34.20;;;7.10;99.90;;;;;;5033381;28;20050;-87
2023/04/09 01:45:15;;;;;;;53.47;36.25;;;7.10;99.90;;;;;;5000699;28;20052;-87
2023/04/09 01:47:41;;;;;;;56.22;37.05;;;7.00;99.90;;;;;;5017275;28;20076;-87
2023/04/09 01:50:07;;;;;;;48.97;33.33;;;7.00;99.90;;;;;;5016750;28;20049;-85
2023/04/09 01:52:34;;;;;;;49.70;33.90;;;7.00;99.90;;;;;;5015726;28;20045;-86
2023/04/09 01:55:00;;;;;;;52.30;35.15;;;7.10;99.90;;;;;;5016923;28;20058;-86
2023/04/09 01:57:25;;;;;;;55.90;38.63;;;7.00;99.90;;;;;;5016603;28;20048;-86
2023/04/09 01:59:54;;;;;;;60.25;39.22;;;7.00;99.90;;;;;;5016957;28;20095;-87
2023/04/09 02:02:35;;;;;;;50.92;35.42;;;7.00;99.90;;;;;;5032982;28;20136;-86
2023/04/09 02:05:06;;;;;;;56.80;38.10;;;7.00;99.90;;;;;;5016406;28;20124;-86
2023/04/09 02:07:37;;;;;;;52.72;34.58;;;7.00;99.90;;;;;;5032664;28;20497;-86
2023/04/09 02:10:05;;;;;;;50.67;35.15;;;7.00;99.90;;;;;;5016435;28;20116;-87
2023/04/09 02:12:34;;;;;;;53.60;36.60;;;7.00;99.90;;;;;;5035433;28;20045;-86
2023/04/09 02:15:02;;;;;;;55.00;38.17;;;7.00;99.90;;;;;;5036829;28;20053;-85
2023/04/09 02:17:27;;;;;;;50.90;34.72;;;7.10;99.90;;;;;;5020109;28;20124;-85
2023/04/09 02:19:53;;;;;;;45.92;32.30;;;7.10;99.90;;;;;;5003709;28;20129;-86
2023/04/09 02:22:19;;;;;;;56.67;38.17;;;7.10;99.90;;;;;;5003618;28;20099;-85
2023/04/09 02:24:54;;;;;;;58.97;38.78;;;7.10;99.90;;;;;;5037037;28;20053;-85
2023/04/09 02:27:20;;;;;;;68.82;42.80;;;7.20;99.90;;;;;;5036651;28;20108;-85
2023/04/09 02:29:45;;;;;;;59.20;38.97;;;7.10;99.90;;;;;;5036348;28;20405;-86
2023/04/09 02:32:11;;;;;;;61.08;39.22;;;7.10;99.90;;;;;;5036348;28;20140;-85
2023/04/09 02:34:37;;;;;;;59.75;40.15;;;7.10;99.90;;;;;;5019943;28;20046;-86
2023/04/09 02:37:03;;;;;;;62.83;40.40;;;7.10;99.90;;;;;;5035766;28;20052;-86
2023/04/09 02:39:28;;;;;;;52.75;36.55;;;7.10;99.90;;;;;;5036126;28;20049;-85
2023/04/09 02:41:55;;;;;;;58.13;38.67;;;7.10;99.90;;;;;;5036351;28;20100;-86
2023/04/09 02:44:20;;;;;;;59.88;38.47;;;7.10;99.90;;;;;;5036249;28;20057;-85
2023/04/09 02:46:47;;;;;;;57.90;39.25;;;7.10;99.90;;;;;;5003391;28;20071;-85
2023/04/09 02:49:22;;;;;;;60.13;38.35;;;7.10;99.90;;;;;;5019925;28;20059;-86
2023/04/09 02:51:48;;;;;;;74.18;44.00;;;7.20;99.90;;;;;;5019153;28;20045;-86
2023/04/09 02:54:14;;;;;;;62.63;40.20;;;7.20;99.90;;;;;;5035582;28;20088;-85
2023/04/09 02:56:43;;;;;;;64.00;41.13;;;7.20;99.90;;;;;;5036077;28;20037;-85
2023/04/09 02:59:09;;;;;;;60.70;41.33;;;7.10;99.90;;;;;;5002467;28;20045;-86
2023/04/09 03:01:35;;;;;;;57.50;37.28;;;7.20;99.90;;;;;;5035533;28;20050;-86
2023/04/09 03:04:01;;;;;;;60.65;40.53;;;7.10;99.90;;;;;;5035536;28;20115;-85
2023/04/09 03:06:27;;;;;;;60.15;39.22;;;7.20;99.90;;;;;;5019022;28;20107;-85
2023/04/09 03:08:53;;;;;;;61.25;40.25;;;7.20;99.90;;;;;;5035579;28;20049;-85
2023/04/09 03:11:18;;;;;;;61.88;38.97;;;7.20;99.90;;;;;;5019407;28;20548;-85
2023/04/09 03:13:44;;;;;;;61.35;40.80;;;7.10;99.90;;;;;;5018642;28;20045;-84
2023/04/09 03:16:10;;;;;;;49.97;35.47;;;7.20;99.90;;;;;;5018850;28;20042;-85
2023/04/09 03:18:36;;;;;;;58.13;40.13;;;7.20;99.90;;;;;;5035516;28;20092;-86
2023/04/09 03:21:08;;;;;;;60.50;39.25;;;7.20;99.90;;;;;;5002524;28;20132;-86
2023/04/09 03:23:34;;;;;;;64.20;40.72;;;7.20;99.90;;;;;;5034964;28;20398;-85
2023/04/09 03:26:04;;;;;;;69.30;42.65;;;7.10;99.90;;;;;;5003062;28;20045;-87
2023/04/09 03:28:30;;;;;;;69.05;42.13;;;7.20;99.90;;;;;;5035348;28;20041;-86
2023/04/09 03:30:57;;;;;;;63.35;39.67;;;7.20;99.90;;;;;;5035370;28;20045;-85
2023/04/09 03:33:23;;;;;;;65.43;41.63;;;7.20;99.90;;;;;;5035524;28;20504;-87
2023/04/09 03:35:49;;;;;;;55.75;38.13;;;7.30;99.90;;;;;;5019040;28;20042;-86
2023/04/09 03:38:15;;;;;;;52.45;34.50;;;7.30;99.90;;;;;;5018657;28;20535;-86
2023/04/09 03:40:44;;;;;;;46.85;31.15;;;7.40;99.90;;;;;;5035038;28;20128;-86
2023/04/09 03:43:10;;;;;;;43.45;29.60;;;7.40;99.90;;;;;;5018847;28;20063;-86
2023/04/09 03:45:45;;;;;;;46.85;33.10;;;7.40;99.90;;;;;;5018673;28;20371;-87
2023/04/09 03:48:10;;;;;;;46.65;31.85;;;7.40;99.90;;;;;;5002424;28;20046;-87
2023/04/09 03:50:40;;;;;;;52.55;34.08;;;7.50;99.90;;;;;;5034751;28;20060;-87
2023/04/09 03:53:06;;;;;;;53.88;35.58;;;7.50;99.90;;;;;;5035100;28;20041;-88
2023/04/09 03:55:33;;;;;;;49.38;34.25;;;7.40;99.90;;;;;;5018680;28;20052;-87
2023/04/09 03:57:58;;;;;;;52.92;36.10;;;7.40;99.90;;;;;;5018471;28;20128;-87
2023/04/09 04:00:32;;;;;;;53.15;35.97;;;7.40;99.90;;;;;;5001809;28;20140;-87
2023/04/09 04:02:58;;;;;;;55.80;35.45;;;7.40;99.90;;;;;;5035069;28;20048;-86
2023/04/09 04:05:25;;;;;;;54.83;36.72;;;7.40;99.90;;;;;;5018146;28;20045;-88
2023/04/09 04:07:51;;;;;;;54.05;36.53;;;7.40;99.90;;;;;;5034510;28;20241;-87
2023/04/09 04:10:16;;;;;;;53.28;35.33;;;7.50;99.90;;;;;;5034281;28;20397;-87
2023/04/09 04:12:42;;;;;;;55.72;37.70;;;7.50;99.90;;;;;;5001618;28;20049;-87
2023/04/09 04:15:08;;;;;;;59.75;38.63;;;7.50;99.90;;;;;;5034489;28;20056;-88
2023/04/09 04:17:34;;;;;;;57.22;37.97;;;7.60;99.90;;;;;;5017678;28;20496;-87
2023/04/09 04:20:00;;;;;;;54.47;35.30;;;7.60;99.90;;;;;;5017860;28;20049;-87
2023/04/09 04:22:26;;;;;;;50.92;34.25;;;7.50;99.90;;;;;;5014015;28;20466;-86
2023/04/09 04:24:51;;;;;;;46.38;29.52;;;7.60;99.90;;;;;;4982038;28;20057;-86
2023/04/09 04:27:23;;;;;;;44.13;29.48;;;7.70;99.90;;;;;;5015152;28;20065;-86
2023/04/09 04:29:48;;;;;;;47.00;31.03;;;7.70;99.90;;;;;;5014556;28;20046;-87
2023/04/09 04:32:14;;;;;;;46.72;30.90;;;7.70;99.90;;;;;;4998338;28;20468;-86
2023/04/09 04:34:40;;;;;;;47.88;31.70;;;7.60;99.90;;;;;;5014375;28;20146;-86
2023/04/09 04:37:07;;;;;;;44.33;30.08;;;7.60;99.90;;;;;;5014431;28;20049;-86
2023/04/09 04:39:33;;;;;;;46.33;30.67;;;7.60;99.90;;;;;;5013885;28;20085;-87
2023/04/09 04:42:00;;;;;;;44.42;29.98;;;7.70;99.90;;;;;;5013909;28;20401;-86
2023/04/09 04:44:25;;;;;;;48.22;30.17;;;7.70;99.90;;;;;;4997836;28;20132;-86
2023/04/09 04:46:51;;;;;;;48.35;32.13;;;7.70;99.90;;;;;;5014271;28;20116;-86
2023/04/09 04:49:19;;;;;;;49.28;32.28;;;7.80;99.90;;;;;;5014145;28;20042;-86
2023/04/09 04:51:45;;;;;;;52.15;35.08;;;7.70;99.90;;;;;;4983515;28;20050;-87
2023/04/09 04:54:11;;;;;;;55.60;35.22;;;7.70;99.90;;;;;;5014391;28;20105;-87
2023/04/09 04:56:37;;;;;;;54.97;35.63;;;7.60;99.90;;;;;;5029960;28;20037;-86
2023/04/09 04:59:02;;;;;;;50.75;34.08;;;7.60;99.90;;;;;;5013830;28;20049;-87
2023/04/09 05:01:31;;;;;;;48.53;34.03;;;7.60;99.90;;;;;;4981014;28;20058;-87
2023/04/09 05:03:57;;;;;;;50.20;33.88;;;6.90;99.90;;;;;;5030205;28;20042;-87
2023/04/09 05:06:23;;;;;;;47.15;32.80;;;7.50;99.90;;;;;;5029910;28;20053;-87
2023/04/09 05:08:49;;;;;;;46.33;30.15;;;7.60;99.90;;;;;;5029693;28;20077;-87
2023/04/09 05:11:15;;;;;;;45.45;30.45;;;7.50;99.90;;;;;;5013406;28;20302;-87
2023/04/09 05:13:41;;;;;;;44.75;30.00;;;7.50;99.90;;;;;;4980826;28;20295;-86
2023/04/09 05:16:07;;;;;;;45.05;29.50;;;7.60;99.90;;;;;;5029873;28;20449;-87
2023/04/09 05:18:33;;;;;;;45.28;30.48;;;7.60;99.90;;;;;;5013382;28;20046;-87
2023/04/09 05:20:58;;;;;;;45.38;29.15;;;7.60;99.90;;;;;;5029754;28;20420;-87
2023/04/09 05:23:24;;;;;;;45.83;29.70;;;7.60;99.90;;;;;;5013329;28;20052;-86
2023/04/09 05:25:50;;;;;;;44.50;30.80;;;7.60;99.90;;;;;;4997241;28;20050;-87
2023/04/09 05:28:16;;;;;;;45.88;31.20;;;7.60;99.90;;;;;;5029843;28;20057;-86
2023/04/09 05:30:47;;;;;;;46.40;30.00;;;7.60;99.90;;;;;;4980967;28;20046;-86
2023/04/09 05:33:13;;;;;;;45.60;30.95;;;7.70;99.90;;;;;;5013252;28;20129;-86
2023/04/09 05:35:39;;;;;;;48.83;32.28;;;7.70;99.90;;;;;;5029666;28;20145;-87
2023/04/09 05:38:05;;;;;;;44.35;30.10;;;7.70;99.90;;;;;;5013605;28;20054;-87
2023/04/09 05:40:31;;;;;;;45.15;30.92;;;7.70;99.90;;;;;;5030001;28;20054;-86
2023/04/09 05:42:56;;;;;;;48.58;31.63;;;7.70;99.90;;;;;;5029939;28;20164;-87
2023/04/09 05:45:22;;;;;;;46.17;30.88;;;7.70;99.90;;;;;;5029891;28;20050;-86
2023/04/09 05:47:48;;;;;;;53.70;34.85;;;7.80;99.90;;;;;;5016611;28;20053;-86
2023/04/09 05:50:14;;;;;;;50.40;34.20;;;7.70;99.90;;;;;;5017442;28;20054;-86
2023/04/09 05:52:39;;;;;;;52.53;36.42;;;7.70;99.90;;;;;;5017319;28;20056;-86
2023/04/09 05:55:05;;;;;;;54.53;38.17;;;7.80;99.90;;;;;;5016717;28;20045;-86
2023/04/09 05:57:32;;;;;;;56.10;38.25;;;7.80;99.90;;;;;;5016932;28;20490;-86
2023/04/09 05:59:58;;;;;;;55.28;38.30;;;7.90;99.90;;;;;;5017299;28;20046;-86
2023/04/09 06:02:24;;;;;;;58.42;39.55;;;8.00;99.90;;;;;;5016376;28;20057;-86
2023/04/09 06:04:50;;;;;;;59.13;40.63;;;7.90;99.90;;;;;;5016631;28;20152;-85
2023/04/09 06:07:16;;;;;;;59.30;38.83;;;8.00;99.90;;;;;;5033526;28;20093;-86
2023/04/09 06:09:48;;;;;;;58.50;41.35;;;8.10;99.90;;;;;;5016816;28;20049;-86
2023/04/09 06:12:14;;;;;;;63.03;40.35;;;8.10;99.90;;;;;;5017046;28;20049;-85
2023/04/09 06:14:40;;;;;;;62.03;43.67;;;8.20;99.90;;;;;;5033230;28;20057;-86
2023/04/09 06:17:06;;;;;;;60.88;41.15;;;8.20;99.90;;;;;;4983753;28;20046;-86
2023/04/09 06:19:32;;;;;;;58.17;39.28;;;8.30;99.90;;;;;;5033324;28;20049;-85
2023/04/09 06:21:57;;;;;;;54.97;40.20;;;8.50;99.90;;;;;;5016190;28;20180;-85
2023/04/09 06:24:26;;;;;;;56.08;41.30;;;8.60;99.90;;;;;;5000242;28;20316;-85
2023/04/09 06:26:51;;;;;;;56.40;39.95;;;8.70;99.90;;;;;;5032694;28;20053;-85
2023/04/09 06:29:17;;;;;;;52.13;36.95;;;9.40;99.90;;;;;;5016491;28;20181;-85
2023/04/09 06:31:43;;;;;;;52.95;36.42;;;9.50;99.90;;;;;;5033012;28;20133;-85
2023/04/09 06:34:12;;;;;;;51.03;35.30;;;9.40;99.90;;;;;;5000474;28;20409;-85
2023/04/09 06:36:39;;;;;;;51.05;36.25;;;9.50;99.90;;;;;;5032377;28;20042;-84
2023/04/09 06:39:05;;;;;;;48.05;35.30;;;9.50;99.90;;;;;;5016265;28;20139;-84
2023/04/09 06:41:31;;;;;;;51.55;35.60;;;9.40;99.90;;;;;;5016524;28;20145;-85
2023/04/09 06:43:58;;;;;;;48.20;35.53;;;9.40;99.90;;;;;;5000431;28;20456;-85
2023/04/09 06:46:24;;;;;;;47.10;34.25;;;9.70;99.90;;;;;;5016791;28;20055;-85
2023/04/09 06:48:49;;;;;;;48.08;35.63;;;9.80;99.90;;;;;;5016298;28;20584;-85
2023/04/09 06:51:15;;;;;;;48.92;35.22;;;9.80;99.90;;;;;;5032554;28;20494;-85
2023/04/09 06:53:41;;;;;;;48.75;34.60;;;9.70;99.90;;;;;;5019766;28;20060;-85
2023/04/09 06:56:08;;;;;;;50.35;34.85;;;9.60;99.90;;;;;;5035916;28;20080;-84
2023/04/09 06:58:34;;;;;;;48.95;33.72;;;9.60;99.90;;;;;;5034861;28;20392;-85
2023/04/09 07:01:03;;;;;;;49.40;35.20;;;9.60;99.90;;;;;;5002839;28;20366;-85
2023/04/09 07:03:32;;;;;;;48.15;33.58;;;9.50;99.90;;;;;;5019374;28;20134;-86
2023/04/09 07:05:58;;;;;;;48.92;33.60;;;9.50;99.90;;;;;;5019152;28;20052;-85
2023/04/09 07:08:24;;;;;;;45.65;32.47;;;9.60;99.90;;;;;;5018809;28;20057;-85
2023/04/09 07:10:50;;;;;;;48.35;32.67;;;9.70;99.90;;;;;;5019020;28;20132;-85
2023/04/09 07:13:16;;;;;;;46.80;32.80;;;9.70;99.90;;;;;;4986863;28;20416;-85
2023/04/09 07:15:42;;;;;;;45.40;31.80;;;9.70;99.90;;;;;;5035681;28;20095;-85
2023/04/09 07:18:07;;;;;;;44.47;30.33;;;9.70;99.90;;;;;;5018802;28;20057;-84
2023/04/09 07:20:33;;;;;;;48.70;34.63;;;9.70;99.90;;;;;;5018544;28;20049;-85
2023/04/09 07:22:59;;;;;;;43.70;28.63;;;9.70;99.90;;;;;;5018476;28;20148;-85
2023/04/09 07:25:25;;;;;;;46.10;31.23;;;9.60;99.90;;;;;;5018479;28;20124;-85
2023/04/09 07:27:51;;;;;;;39.38;26.50;;;9.70;99.90;;;;;;5018708;28;20089;-84
2023/04/09 07:30:17;;;;;;;40.30;29.83;;;10.00;99.90;;;;;;5019360;28;20150;-84
2023/04/09 07:32:43;;;;;;;40.78;28.38;;;10.00;99.90;;;;;;5034863;28;20057;-84
2023/04/09 07:35:11;;;;;;;42.08;29.48;;;10.00;99.90;;;;;;5035097;28;20060;-85
2023/04/09 07:37:37;;;;;;;41.17;27.70;;;9.90;99.90;;;;;;5034854;28;20050;-85
2023/04/09 07:40:03;;;;;;;40.55;26.25;;;10.10;99.90;;;;;;5035146;28;20068;-85
2023/04/09 07:42:29;;;;;;;42.97;27.95;;;10.30;99.90;;;;;;5035832;28;20056;-85
2023/04/09 07:44:55;;;;;;;45.28;31.25;;;10.30;99.90;;;;;;5018253;28;20045;-84
2023/04/09 07:47:22;;;;;;;43.63;27.75;;;10.20;99.90;;;;;;5035121;28;20456;-84
2023/04/09 07:49:48;;;;;;;42.30;31.10;;;10.30;99.90;;;;;;5034876;28;20088;-85
2023/04/09 07:52:14;;;;;;;41.92;27.40;;;10.40;99.90;;;;;;5034719;28;20050;-84
2023/04/09 07:54:40;;;;;;;40.40;28.52;;;10.50;99.90;;;;;;5034832;28;20123;-84
2023/04/09 07:57:06;;;;;;;41.70;29.27;;;10.60;99.90;;;;;;5034454;28;20595;-84
2023/04/09 07:59:33;;;;;;;43.67;31.13;;;10.50;99.90;;;;;;5034741;28;20053;-85
2023/04/09 08:01:59;;;;;;;45.53;30.33;;;10.70;99.90;;;;;;5017430;28;20049;-84
2023/04/09 08:04:28;;;;;;;46.47;33.08;;;10.90;99.90;;;;;;5017881;28;20064;-84
2023/04/09 08:06:54;;;;;;;43.88;30.40;;;11.00;99.90;;;;;;5033715;28;20038;-84
2023/04/09 08:09:20;;;;;;;42.20;30.23;;;11.10;99.90;;;;;;5034114;28;20137;-84
2023/04/09 08:11:50;;;;;;;43.47;30.38;;;11.10;99.90;;;;;;5017641;28;20493;-84
2023/04/09 08:14:19;;;;;;;44.80;32.05;;;11.20;99.90;;;;;;5034105;28;20045;-85
2023/04/09 08:16:46;;;;;;;43.40;31.15;;;11.30;99.90;;;;;;5034442;28;20042;-84
2023/04/09 08:19:16;;;;;;;43.15;31.42;;;11.50;99.90;;;;;;5034095;28;20045;-85
2023/04/09 08:21:42;;;;;;;41.17;28.38;;;11.60;99.90;;;;;;5018302;28;20053;-85
2023/04/09 08:24:12;;;;;;;41.28;31.02;;;11.70;99.90;;;;;;5017901;28;20053;-85
2023/04/09 08:26:39;;;;;;;42.30;30.42;;;11.70;99.90;;;;;;5017493;28;20041;-85
2023/04/09 08:29:05;;;;;;;45.28;31.95;;;11.70;99.90;;;;;;5034186;28;20436;-86
2023/04/09 08:31:30;;;;;;;41.75;30.95;;;11.80;99.90;;;;;;5033917;28;20136;-85
2023/04/09 08:33:57;;;;;;;37.10;27.10;;;12.00;99.90;;;;;;5001598;28;20049;-85
2023/04/09 08:36:22;;;;;;;45.78;31.10;;;12.10;99.90;;;;;;4984175;28;20099;-85
2023/04/09 08:38:48;;;;;;;40.03;28.27;;;12.10;99.90;;;;;;5017192;28;20050;-85
2023/04/09 08:41:19;;;;;;;41.10;29.83;;;12.10;99.90;;;;;;5017368;28;20080;-85
2023/04/09 08:43:48;;;;;;;40.58;29.95;;;12.20;99.90;;;;;;5033995;28;20398;-85
2023/04/09 08:46:17;;;;;;;40.55;30.30;;;12.20;99.90;;;;;;5017342;28;20053;-84
2023/04/09 08:48:45;;;;;;;40.72;29.60;;;12.00;99.90;;;;;;5016926;28;20137;-84
2023/04/09 08:51:15;;;;;;;41.22;30.17;;;12.10;99.90;;;;;;5017340;28;20056;-85
2023/04/09 08:54:00;;;;;;;40.63;28.73;;;12.30;99.90;;;;;;5014307;28;20053;-85
2023/04/09 08:56:26;;;;;;;39.08;27.30;;;12.40;99.90;;;;;;5013610;28;20052;-85
2023/04/09 08:58:52;;;;;;;36.88;24.85;;;12.50;99.90;;;;;;4997140;28;20053;-85
2023/04/09 09:01:23;;;;;;;41.25;29.92;;;12.60;99.90;;;;;;5013545;28;20058;-85
2023/04/09 09:04:02;;;;;;;41.17;29.08;;;12.70;99.90;;;;;;5013537;28;20052;-85
2023/04/09 09:06:37;;;;;;;36.20;24.13;;;12.80;99.90;;;;;;4996888;28;20057;-86
2023/04/09 09:09:07;;;;;;;35.53;26.42;;;13.10;99.90;;;;;;5013922;28;20118;-85
2023/04/09 09:11:44;;;;;;;38.08;29.17;;;12.90;99.90;;;;;;5014129;28;20085;-84
2023/04/09 09:14:15;;;;;;;39.38;28.25;;;12.60;99.90;;;;;;5013993;28;20081;-83
2023/04/09 09:16:43;;;;;;;38.50;29.53;;;12.60;99.90;;;;;;5013994;28;20060;-83
2023/04/09 09:19:29;;;;;;;35.17;24.25;;;12.50;99.90;;;;;;5013574;28;20692;-84
2023/04/09 09:21:59;;;;;;;38.58;28.92;;;12.80;99.90;;;;;;4999818;28;20409;-83
2023/04/09 09:24:25;;;;;;;38.38;26.15;;;12.80;99.90;;;;;;4997221;28;20402;-84
2023/04/09 09:26:53;;;;;;;38.92;28.65;;;12.80;99.90;;;;;;5013640;28;20061;-85
2023/04/09 09:29:20;;;;;;;39.10;30.25;;;12.90;99.90;;;;;;5013590;28;20371;-84
2023/04/09 09:31:50;;;;;;;37.50;27.52;;;13.10;99.90;;;;;;4997429;28;20057;-84
2023/04/09 09:34:17;;;;;;;38.53;28.17;;;13.50;99.90;;;;;;5013463;28;20057;-84
2023/04/09 09:36:44;;;;;;;37.70;27.13;;;13.60;99.90;;;;;;4996715;28;20065;-83
2023/04/09 09:39:12;;;;;;;37.72;29.25;;;13.50;99.90;;;;;;5013657;28;20056;-84
2023/04/09 09:41:41;;;;;;;39.78;30.55;;;13.30;99.90;;;;;;5013761;28;20375;-84
2023/04/09 09:44:08;;;;;;;41.40;29.55;;;13.40;99.90;;;;;;5013296;28;20054;-84
2023/04/09 09:46:39;;;;;;;39.10;28.80;;;13.60;99.90;;;;;;4997072;28;20050;-84
2023/04/09 09:49:08;;;;;;;36.72;25.95;;;13.50;99.90;;;;;;5013435;28;20401;-84
2023/04/09 09:51:40;;;;;;;37.40;27.83;;;13.50;99.90;;;;;;5016953;28;20049;-84
2023/04/09 09:54:09;;;;;;;39.70;29.30;;;13.70;99.90;;;;;;5033249;28;20049;-84
2023/04/09 09:56:37;;;;;;;39.92;28.05;;;13.50;99.90;;;;;;5017086;28;20054;-84
2023/04/09 09:59:14;;;;;;;38.00;29.15;;;13.80;99.90;;;;;;5033184;28;20049;-84
2023/04/09 10:01:42;;;;;;;36.75;27.92;;;13.90;99.90;;;;;;5016165;28;20059;-84
2023/04/09 10:04:12;;;;;;;37.00;28.92;;;13.90;99.90;;;;;;5017036;28;20046;-84
2023/04/09 10:06:44;;;;;;;36.40;26.10;;;14.10;99.90;;;;;;5033283;28;20064;-84
2023/04/09 10:09:10;;;;;;;37.05;29.05;;;14.20;99.90;;;;;;5033083;28;20052;-85
2023/04/09 10:11:37;;;;;;;39.80;29.80;;;14.10;99.90;;;;;;5033337;28;20481;-84
2023/04/09 10:14:04;;;;;;;38.80;29.83;;;14.20;99.90;;;;;;5016685;28;20124;-84
2023/04/09 10:16:30;;;;;;;35.30;24.27;;;14.20;99.90;;;;;;5033115;28;20054;-84
2023/04/09 10:19:00;;;;;;;37.70;28.17;;;14.20;99.90;;;;;;5033264;28;20053;-84
2023/04/09 10:21:55;;;;;;;37.90;29.55;;;14.20;99.90;;;;;;5033279;28;20172;-83
2023/04/09 10:24:21;;;;;;;34.95;24.13;;;14.30;99.90;;;;;;5016278;28;20508;-84
2023/04/09 10:26:52;;;;;;;36.58;27.80;;;14.40;99.90;;;;;;5032862;28;20374;-84
2023/04/09 10:29:27;;;;;;;36.13;28.87;;;14.40;99.90;;;;;;5032755;28;20050;-84
2023/04/09 10:32:10;;;;;;;38.17;30.45;;;14.40;99.90;;;;;;5032733;28;20096;-85
2023/04/09 10:34:43;;;;;;;35.88;26.38;;;14.60;99.90;;;;;;5036459;28;20038;-85
2023/04/09 10:37:15;;;;;;;35.10;27.45;;;14.80;99.90;;;;;;5019881;28;20473;-85
2023/04/09 10:39:46;;;;;;;34.25;25.48;;;14.80;99.90;;;;;;5036100;28;20145;-84
2023/04/09 10:42:25;;;;;;;33.25;23.90;;;14.90;99.90;;;;;;5019747;28;20056;-85
2023/04/09 10:45:05;;;;;;;34.63;25.33;;;14.80;99.90;;;;;;5036638;28;20053;-85
2023/04/09 10:47:35;;;;;;;35.97;25.98;;;14.70;99.90;;;;;;5036121;28;20401;-85
2023/04/09 10:50:16;;;;;;;32.22;25.02;;;14.70;99.90;;;;;;5036146;28;20451;-85
2023/04/09 10:52:43;;;;;;;32.90;25.00;;;14.90;99.90;;;;;;5036458;28;20052;-85
2023/04/09 10:55:28;;;;;;;30.58;24.10;;;15.10;99.90;;;;;;5037523;28;20056;-85
2023/04/09 10:57:54;;;;;;;32.45;23.95;;;15.20;99.90;;;;;;5035513;28;20049;-85
2023/04/09 11:00:20;;;;;;;28.80;22.58;;;15.30;99.90;;;;;;5035436;28;20509;-85
2023/04/09 11:03:16;;;;;;;32.58;24.50;;;15.20;97.20;;;;;;5018939;28;20113;-85
2023/04/09 11:05:43;;;;;;;27.08;20.08;;;14.90;99.30;;;;;;5019173;28;20104;-85
2023/04/09 11:08:11;;;;;;;30.00;23.95;;;14.60;99.90;;;;;;5036169;28;20118;-84
2023/04/09 11:10:38;;;;;;;30.45;24.05;;;14.30;99.90;;;;;;5002909;28;20136;-85
2023/04/09 11:13:04;;;;;;;31.77;24.42;;;14.10;99.90;;;;;;5035543;28;20366;-85
2023/04/09 11:15:31;;;;;;;31.65;23.45;;;14.00;99.90;;;;;;5035896;28;20055;-85
2023/04/09 11:17:57;;;;;;;30.13;22.42;;;14.20;99.90;;;;;;5035123;28;20046;-84
2023/04/09 11:20:26;;;;;;;30.95;21.95;;;14.50;99.90;;;;;;5036044;28;20055;-84
2023/04/09 11:22:54;;;;;;;26.92;18.67;;;14.70;99.90;;;;;;5019133;28;20397;-85
2023/04/09 11:25:25;;;;;;;28.67;21.38;;;14.80;99.90;;;;;;5035646;28;20056;-85
2023/04/09 11:27:51;;;;;;;27.80;21.75;;;14.80;99.90;;;;;;5035004;28;20068;-85
2023/04/09 11:30:17;;;;;;;27.73;22.55;;;14.50;98.40;;;;;;5018560;28;20061;-85
2023/04/09 11:32:44;;;;;;;20.27;11.63;;;14.50;99.00;;;;;;5002508;28;20048;-83
2023/04/09 11:35:14;;;;;;;26.92;21.13;;;14.80;99.90;;;;;;5034764;28;20149;-84
2023/04/09 11:37:42;;;;;;;29.30;22.25;;;15.10;99.90;;;;;;5018814;28;20481;-85
2023/04/09 11:40:28;;;;;;;25.80;20.63;;;15.00;97.10;;;;;;5018123;28;20049;-85
2023/04/09 11:42:54;;;;;;;25.45;19.70;;;14.90;98.50;;;;;;5035303;28;20073;-85
2023/04/09 11:45:25;;;;;;;25.45;18.08;;;14.90;95.30;;;;;;5035042;28;20054;-85
2023/04/09 11:47:51;;;;;;;26.70;18.58;;;14.70;95.90;;;;;;5035342;28;20038;-84
2023/04/09 11:50:18;;;;;;;28.17;20.75;;;14.40;97.00;;;;;;5018657;28;20108;-86
2023/04/09 11:52:47;;;;;;;28.13;22.17;;;14.10;96.70;;;;;;5034953;28;20121;-86
2023/04/09 11:55:23;;;;;;;28.92;22.60;;;13.90;99.20;;;;;;5018875;28;20054;-86
2023/04/09 11:57:52;;;;;;;26.60;18.67;;;14.10;99.90;;;;;;5001786;28;20055;-85
2023/04/09 12:00:23;;;;;;;27.08;20.85;;;14.20;98.00;;;;;;5034346;28;20049;-86
2023/04/09 12:02:57;;;;;;;26.33;19.23;;;14.30;97.30;;;;;;5034586;28;20057;-85
2023/04/09 12:05:33;;;;;;;25.90;19.80;;;14.30;97.30;;;;;;5019401;28;20056;-85
2023/04/09 12:08:05;;;;;;;25.75;20.10;;;14.20;97.30;;;;;;5034285;28;20493;-85
2023/04/09 12:10:34;;;;;;;25.73;20.25;;;14.10;97.70;;;;;;5001450;28;20045;-85
2023/04/09 12:13:06;;;;;;;20.45;15.23;;;14.40;99.80;;;;;;5033623;28;20088;-85
2023/04/09 12:15:34;;;;;;;22.40;16.48;;;14.60;96.30;;;;;;5033171;28;20045;-85
2023/04/09 12:18:00;;;;;;;21.45;16.33;;;14.50;95.60;;;;;;5033085;28;20049;-85
2023/04/09 12:20:55;;;;;;;21.60;17.13;;;14.40;95.50;;;;;;5033387;28;20081;-86
2023/04/09 12:23:21;;;;;;;23.08;16.30;;;14.40;96.70;;;;;;5004619;28;20414;-86
2023/04/09 12:25:47;;;;;;;18.00;11.25;;;14.40;98.70;;;;;;5012904;28;20041;-86
2023/04/09 12:28:16;;;;;;;21.38;15.25;;;14.70;94.60;;;;;;4998409;28;20054;-85
2023/04/09 12:30:43;;;;;;;20.83;14.50;;;14.80;94.40;;;;;;5013590;28;20112;-86
2023/04/09 12:33:09;;;;;;;21.27;16.88;;;14.90;93.20;;;;;;5012817;28;20085;-85
2023/04/09 12:35:36;;;;;;;20.58;16.30;;;14.70;93.80;;;;;;5012849;28;20056;-85
2023/04/09 12:38:03;;;;;;;20.95;16.50;;;14.80;93.10;;;;;;4997048;28;20046;-85
2023/04/09 12:40:30;;;;;;;22.33;16.90;;;14.90;94.40;;;;;;5013070;28;20049;-84